Terminal Aerodrome Forecast
Issued by NWS Sterling, VA

Current Version | Previous Version | Text Only | Print | Product List | Glossary Off
Versions: 1 2 3 4 5 6 7 8 9 10 11 12 13 14 15 16 17 18 19 20 21 22 23 24 25

010
FTUS41 KLWX 141456 AAA
TAFIAD
TAF AMD
KIAD 141456Z 1415/1518 00000KT P6SM BKN015
     FM141800 00000KT P6SM BKN025
     FM142100 00000KT P6SM SCT035
     FM150400 00000KT P6SM FEW015
     FM150600 00000KT 3SM BR SCT010
     FM150900 00000KT 3/4SM BR SCT010
     FM151200 00000KT 2SM BR SCT010
     FM151500 20006KT P6SM SCT250=

USA.gov is the U.S. government's official web portal to all federal, state and local government web resources and services.